Aeroporto :







RITROVATECI SU...

 
LOGIN :

Iscrizione | Disclaimer

   EN    FR    IT 

 









Sommario :    VFR   VFR Marginale   IFR   IFR Intensivo   IFR Molto Intensivo
Visibilità : 
Base nubi : 
>= 8 km
>= 3000ft
5 / 8 km
1000 / 3000 ft
1500m / 5 km
500 / 1000 ft
800 / 1500m
200 / 500 ft
< 800m
< 200 ft
Simboli :   Temporali  Nebbia  Neve Forte  Precipitazioni Forti  Vento > 20 kt






- Altitudine del aeroporto : 119 ft
- Codice IATA : YPJ


CYLA - Aupaluk

ULTIMO METAR :
  • 152000Z 06023G28KT 5/8SM -SN BLSN VV012 M08/M10 A2935 RMK BLSN8 SLP945

METARs OBSOLETI :
  • 151936Z 05024G29KT 5/8SM -SN BLSN VV018 M08/M10 A2936 RMK BLSN8 SLP948
  • 151900Z CCA 05025KT 3/4SM -SN BLSN VV014 M08/M10 A2939 RMK BLSN8 SLP956
  • 151823Z 05023G29KT 3/4SM -SN BLSN VV014 M09/M11 A2942 RMK BLSN8 SLP968
  • 151800Z CCA 06022KT 1/2SM SN BLSN VV013 M09/M11 A2944 RMK BLSN8 PRESFR SLP975

TAF N/A



MetMap, La meteo Aeronautica in un colpo d'occhio ! - Copyright ORBIFLY Dicembre 2007 - Disclaimer

ORBIFLY MET'MAP TEAM :

Programmazione e sviluppo : Alexandra Zaïnal
Concezione : Baudouin d'Aumeries
Aiuto per la programmazione : Marc-Olivier Méhu
Supporto tecnico e logistico : Manuel Goepfert
Aiuto per la traduzione : Arnaldo La Scala

Contatto : metmap@orbifly.com




FONTI E CREDITI :

   NOAA